sensor_id;sensor_type;location;lat;lon;timestamp;pressure;altitude;pressure_sealevel;temperature;humidity
25156;BME280;21913;52.456;13.634;2022-08-11T00:03:13;101026.88;;;21.85;64.20
25156;BME280;21913;52.456;13.634;2022-08-11T00:08:25;101028.66;;;21.84;64.12
25156;BME280;21913;52.456;13.634;2022-08-11T00:13:35;101030.44;;;21.84;64.07
25156;BME280;21913;52.456;13.634;2022-08-11T00:18:44;101027.78;;;21.84;64.18
25156;BME280;21913;52.456;13.634;2022-08-11T00:23:51;101024.28;;;21.83;64.28
25156;BME280;21913;52.456;13.634;2022-08-11T00:28:53;101027.84;;;21.82;64.39
25156;BME280;21913;52.456;13.634;2022-08-11T00:33:55;101034.03;;;21.81;64.39
25156;BME280;21913;52.456;13.634;2022-08-11T00:39:01;101028.75;;;21.81;64.08
25156;BME280;21913;52.456;13.634;2022-08-11T01:46:45;101021.84;;;21.77;64.61
25156;BME280;21913;52.456;13.634;2022-08-11T02:12:52;101017.44;;;21.77;64.90
25156;BME280;21913;52.456;13.634;2022-08-11T02:18:09;101016.59;;;21.77;64.69
25156;BME280;21913;52.456;13.634;2022-08-11T02:23:20;101020.13;;;21.76;64.79
25156;BME280;21913;52.456;13.634;2022-08-11T02:33:28;101026.25;;;21.76;64.99
25156;BME280;21913;52.456;13.634;2022-08-11T02:38:48;101021.91;;;21.75;64.86
25156;BME280;21913;52.456;13.634;2022-08-11T02:43:59;101020.13;;;21.76;64.83
25156;BME280;21913;52.456;13.634;2022-08-11T02:49:17;101018.41;;;21.75;65.02
25156;BME280;21913;52.456;13.634;2022-08-11T02:54:29;101015.78;;;21.75;64.79
25156;BME280;21913;52.456;13.634;2022-08-11T03:15:18;101026.31;;;21.75;64.96
25156;BME280;21913;52.456;13.634;2022-08-11T03:25:33;101028.06;;;21.74;65.09
25156;BME280;21913;52.456;13.634;2022-08-11T03:30:53;101027.19;;;21.74;65.23
25156;BME280;21913;52.456;13.634;2022-08-11T03:36:04;101021.94;;;21.74;65.06
25156;BME280;21913;52.456;13.634;2022-08-11T04:18:23;101024.69;;;21.71;65.05
25156;BME280;21913;52.456;13.634;2022-08-11T04:54:17;101020.31;;;21.70;65.19
25156;BME280;21913;52.456;13.634;2022-08-11T05:14:51;101022.97;;;21.70;65.29
25156;BME280;21913;52.456;13.634;2022-08-11T05:19:53;101026.66;;;21.64;65.60
25156;BME280;21913;52.456;13.634;2022-08-11T05:25:05;101032.03;;;21.60;65.33
25156;BME280;21913;52.456;13.634;2022-08-11T05:30:07;101032.06;;;21.58;65.07
25156;BME280;21913;52.456;13.634;2022-08-11T05:35:10;101032.13;;;21.57;64.54
25156;BME280;21913;52.456;13.634;2022-08-11T05:40:12;101029.50;;;21.57;64.04
25156;BME280;21913;52.456;13.634;2022-08-11T05:45:15;101029.50;;;21.57;63.82
25156;BME280;21913;52.456;13.634;2022-08-11T05:50:17;101029.50;;;21.57;63.81
25156;BME280;21913;52.456;13.634;2022-08-11T05:55:18;101020.72;;;21.56;63.61
25156;BME280;21913;52.456;13.634;2022-08-11T06:00:20;101028.63;;;21.56;63.74
25156;BME280;21913;52.456;13.634;2022-08-11T06:05:22;101032.13;;;21.57;63.90
25156;BME280;21913;52.456;13.634;2022-08-11T06:10:25;101025.13;;;21.56;64.02
25156;BME280;21913;52.456;13.634;2022-08-11T06:15:29;101033.03;;;21.56;63.65
25156;BME280;21913;52.456;13.634;2022-08-11T06:20:31;101028.69;;;21.55;64.15
25156;BME280;21913;52.456;13.634;2022-08-11T06:25:34;101033.94;;;21.55;63.80
25156;BME280;21913;52.456;13.634;2022-08-11T06:30:37;101031.31;;;21.55;64.27
25156;BME280;21913;52.456;13.634;2022-08-11T06:35:46;101025.19;;;21.54;64.24
25156;BME280;21913;52.456;13.634;2022-08-11T06:40:55;101029.59;;;21.53;64.19
25156;BME280;21913;52.456;13.634;2022-08-11T06:46:07;101025.19;;;21.54;64.18
25156;BME280;21913;52.456;13.634;2022-08-11T06:51:10;101030.47;;;21.54;64.17
25156;BME280;21913;52.456;13.634;2022-08-11T06:56:12;101024.34;;;21.53;64.39
25156;BME280;21913;52.456;13.634;2022-08-11T07:01:16;101023.47;;;21.53;64.70
25156;BME280;21913;52.456;13.634;2022-08-11T07:16:56;101023.47;;;21.53;64.86
25156;BME280;21913;52.456;13.634;2022-08-11T07:21:59;101026.97;;;21.53;64.82
25156;BME280;21913;52.456;13.634;2022-08-11T07:27:05;101023.47;;;21.53;64.65
25156;BME280;21913;52.456;13.634;2022-08-11T07:32:11;101019.06;;;21.53;64.52
25156;BME280;21913;52.456;13.634;2022-08-11T07:37:15;101023.41;;;21.55;65.09
25156;BME280;21913;52.456;13.634;2022-08-11T07:42:21;101008.44;;;21.57;64.98
25156;BME280;21913;52.456;13.634;2022-08-11T07:47:23;101016.25;;;21.60;65.20
25156;BME280;21913;52.456;13.634;2022-08-11T07:52:28;101029.31;;;21.63;65.18
25156;BME280;21913;52.456;13.634;2022-08-11T07:57:30;101015.22;;;21.64;64.92
25156;BME280;21913;52.456;13.634;2022-08-11T08:02:32;101035.28;;;21.69;65.19
25156;BME280;21913;52.456;13.634;2022-08-11T08:07:35;101020.31;;;21.70;64.90
25156;BME280;21913;52.456;13.634;2022-08-11T08:12:37;101025.53;;;21.71;65.32
25156;BME280;21913;52.456;13.634;2022-08-11T08:17:41;101024.63;;;21.72;65.30
25156;BME280;21913;52.456;13.634;2022-08-11T08:22:43;101024.56;;;21.74;65.10
25156;BME280;21913;52.456;13.634;2022-08-11T08:27:46;101029.84;;;21.74;65.17
25156;BME280;21913;52.456;13.634;2022-08-11T08:32:50;101028.91;;;21.76;65.42
25156;BME280;21913;52.456;13.634;2022-08-11T08:37:52;101021.91;;;21.75;65.00
25156;BME280;21913;52.456;13.634;2022-08-11T08:42:55;101023.56;;;21.78;64.99
25156;BME280;21913;52.456;13.634;2022-08-11T08:53:00;101021.84;;;21.77;65.05
25156;BME280;21913;52.456;13.634;2022-08-11T08:58:04;101022.72;;;21.77;65.35
25156;BME280;21913;52.456;13.634;2022-08-11T09:03:06;101019.22;;;21.77;65.25
25156;BME280;21913;52.456;13.634;2022-08-11T09:08:17;101018.38;;;21.76;65.21
25156;BME280;21913;52.456;13.634;2022-08-11T09:13:19;101017.44;;;21.77;65.48
25156;BME280;21913;52.456;13.634;2022-08-11T09:18:20;101027.97;;;21.77;65.42
25156;BME280;21913;52.456;13.634;2022-08-11T09:23:22;101017.44;;;21.77;65.18
25156;BME280;21913;52.456;13.634;2022-08-11T09:28:44;101014.88;;;21.76;65.56
25156;BME280;21913;52.456;13.634;2022-08-11T09:33:46;101005.19;;;21.76;65.39
25156;BME280;21913;52.456;13.634;2022-08-11T09:38:49;101004.34;;;21.76;65.57
25156;BME280;21913;52.456;13.634;2022-08-11T09:43:51;100994.72;;;21.75;65.38
25156;BME280;21913;52.456;13.634;2022-08-11T09:48:54;100998.22;;;21.74;65.83
25156;BME280;21913;52.456;13.634;2022-08-11T09:53:55;101000.88;;;21.74;65.57
25156;BME280;21913;52.456;13.634;2022-08-11T09:59:00;100996.50;;;21.73;65.55
25156;BME280;21913;52.456;13.634;2022-08-11T10:04:06;101000.00;;;21.73;65.53
25156;BME280;21913;52.456;13.634;2022-08-11T10:09:08;101001.78;;;21.73;65.85
25156;BME280;21913;52.456;13.634;2022-08-11T10:14:10;100991.31;;;21.71;65.63
25156;BME280;21913;52.456;13.634;2022-08-11T10:19:14;100986.91;;;21.72;66.05
25156;BME280;21913;52.456;13.634;2022-08-11T10:24:17;100982.53;;;21.71;66.06
25156;BME280;21913;52.456;13.634;2022-08-11T10:34:52;100983.47;;;21.70;66.01
25156;BME280;21913;52.456;13.634;2022-08-11T10:39:55;100965.91;;;21.69;66.06
25156;BME280;21913;52.456;13.634;2022-08-11T10:44:57;100969.44;;;21.69;66.37
25156;BME280;21913;52.456;13.634;2022-08-11T10:49:59;100956.34;;;21.66;66.25
25156;BME280;21913;52.456;13.634;2022-08-11T10:55:02;100957.19;;;21.67;66.42
25156;BME280;21913;52.456;13.634;2022-08-11T11:00:04;100950.22;;;21.66;66.68
25156;BME280;21913;52.456;13.634;2022-08-11T11:10:08;100947.59;;;21.66;66.49
25156;BME280;21913;52.456;13.634;2022-08-11T11:15:09;100933.56;;;21.65;66.99
25156;BME280;21913;52.456;13.634;2022-08-11T11:20:12;100931.84;;;21.64;66.80
25156;BME280;21913;52.456;13.634;2022-08-11T11:30:16;100930.94;;;21.64;67.07
25156;BME280;21913;52.456;13.634;2022-08-11T11:35:35;100933.59;;;21.64;67.08
25156;BME280;21913;52.456;13.634;2022-08-11T11:40:39;100913.44;;;21.63;66.85
25156;BME280;21913;52.456;13.634;2022-08-11T11:45:41;100916.06;;;21.63;67.06
25156;BME280;21913;52.456;13.634;2022-08-11T11:50:43;100902.03;;;21.62;67.19
25156;BME280;21913;52.456;13.634;2022-08-11T11:55:45;100907.31;;;21.62;66.97
25156;BME280;21913;52.456;13.634;2022-08-11T12:00:47;100888.88;;;21.62;67.07
25156;BME280;21913;52.456;13.634;2022-08-11T12:05:48;100889.78;;;21.61;67.17
25156;BME280;21913;52.456;13.634;2022-08-11T12:15:51;100884.53;;;21.61;67.01
25156;BME280;21913;52.456;13.634;2022-08-11T12:20:53;100882.75;;;21.62;67.28
25156;BME280;21913;52.456;13.634;2022-08-11T12:25:54;100878.41;;;21.61;67.39
25156;BME280;21913;52.456;13.634;2022-08-11T12:31:10;100878.41;;;21.61;67.08
25156;BME280;21913;52.456;13.634;2022-08-11T12:36:18;100874.06;;;21.60;67.24
25156;BME280;21913;52.456;13.634;2022-08-11T12:41:20;100870.56;;;21.59;67.37
25156;BME280;21913;52.456;13.634;2022-08-11T12:46:32;100865.28;;;21.59;67.36
25156;BME280;21913;52.456;13.634;2022-08-11T12:51:35;100854.75;;;21.59;67.47
25156;BME280;21913;52.456;13.634;2022-08-11T12:56:40;100860.88;;;21.60;67.36
25156;BME280;21913;52.456;13.634;2022-08-11T13:01:42;100844.22;;;21.59;67.33
25156;BME280;21913;52.456;13.634;2022-08-11T13:06:44;100848.63;;;21.59;67.58
25156;BME280;21913;52.456;13.634;2022-08-11T13:11:46;100835.47;;;21.59;67.61
25156;BME280;21913;52.456;13.634;2022-08-11T13:16:47;100831.47;;;21.98;62.75
25156;BME280;21913;52.456;13.634;2022-08-11T13:21:49;100820.59;;;23.26;57.04
25156;BME280;21913;52.456;13.634;2022-08-11T13:26:52;100827.59;;;24.12;55.10
25156;BME280;21913;52.456;13.634;2022-08-11T13:31:54;100814.56;;;24.48;54.61
25156;BME280;21913;52.456;13.634;2022-08-11T13:36:57;100807.00;;;24.59;54.62
25156;BME280;21913;52.456;13.634;2022-08-11T13:42:00;100813.22;;;24.58;54.80
25156;BME280;21913;52.456;13.634;2022-08-11T13:47:02;100807.13;;;24.56;55.20
25156;BME280;21913;52.456;13.634;2022-08-11T13:52:05;100808.25;;;24.51;55.38
25156;BME280;21913;52.456;13.634;2022-08-11T13:57:07;100806.84;;;24.44;55.69
25156;BME280;21913;52.456;13.634;2022-08-11T14:02:14;100793.81;;;24.39;55.94
25156;BME280;21913;52.456;13.634;2022-08-11T14:07:17;100787.91;;;24.32;56.29
25156;BME280;21913;52.456;13.634;2022-08-11T14:12:23;100791.69;;;24.27;56.54
25156;BME280;21913;52.456;13.634;2022-08-11T14:17:25;100781.41;;;24.21;56.70
25156;BME280;21913;52.456;13.634;2022-08-11T14:22:28;100780.59;;;24.19;56.79
25156;BME280;21913;52.456;13.634;2022-08-11T14:27:30;100780.88;;;24.12;57.15
25156;BME280;21913;52.456;13.634;2022-08-11T14:32:32;100774.91;;;24.07;57.38
25156;BME280;21913;52.456;13.634;2022-08-11T14:37:33;100767.41;;;23.98;57.56
25156;BME280;21913;52.456;13.634;2022-08-11T14:42:35;100770.31;;;23.92;57.78
25156;BME280;21913;52.456;13.634;2022-08-11T14:47:37;100769.69;;;23.87;58.11
25156;BME280;21913;52.456;13.634;2022-08-11T14:53:02;100762.81;;;23.83;58.18
25156;BME280;21913;52.456;13.634;2022-08-11T14:58:01;100754.28;;;23.76;58.38
25156;BME280;21913;52.456;13.634;2022-08-11T15:03:03;100755.34;;;23.72;58.41
25156;BME280;21913;52.456;13.634;2022-08-11T15:08:05;100766.09;;;23.68;58.69
25156;BME280;21913;52.456;13.634;2022-08-11T15:13:07;100751.34;;;23.62;58.78
25156;BME280;21913;52.456;13.634;2022-08-11T15:18:10;100748.88;;;23.57;59.18
25156;BME280;21913;52.456;13.634;2022-08-11T15:23:12;100733.22;;;23.53;59.22
25156;BME280;21913;52.456;13.634;2022-08-11T15:28:14;100739.59;;;23.49;59.44
25156;BME280;21913;52.456;13.634;2022-08-11T15:33:17;100730.06;;;23.45;59.66
25156;BME280;21913;52.456;13.634;2022-08-11T15:38:19;100728.47;;;23.41;59.72
25156;BME280;21913;52.456;13.634;2022-08-11T15:43:22;100733.94;;;23.36;59.83
25156;BME280;21913;52.456;13.634;2022-08-11T15:53:34;100719.28;;;23.29;60.17
25156;BME280;21913;52.456;13.634;2022-08-11T15:58:41;100708.91;;;23.24;60.16
25156;BME280;21913;52.456;13.634;2022-08-11T16:03:44;100710.81;;;23.21;60.40
25156;BME280;21913;52.456;13.634;2022-08-11T16:08:47;100706.53;;;23.18;60.30
25156;BME280;21913;52.456;13.634;2022-08-11T16:13:50;100701.38;;;23.15;60.63
25156;BME280;21913;52.456;13.634;2022-08-11T16:18:53;100688.38;;;23.10;60.73
25156;BME280;21913;52.456;13.634;2022-08-11T16:23:56;100684.94;;;23.08;60.82
25156;BME280;21913;52.456;13.634;2022-08-11T16:28:59;100685.09;;;23.05;60.83
25156;BME280;21913;52.456;13.634;2022-08-11T16:34:01;100689.56;;;23.03;61.01
25156;BME280;21913;52.456;13.634;2022-08-11T16:39:03;100692.25;;;23.02;61.09
25156;BME280;21913;52.456;13.634;2022-08-11T16:44:06;100678.31;;;22.98;61.18
25156;BME280;21913;52.456;13.634;2022-08-11T16:49:12;100668.81;;;22.94;61.30
25156;BME280;21913;52.456;13.634;2022-08-11T16:54:16;100669.72;;;22.93;61.34
25156;BME280;21913;52.456;13.634;2022-08-11T17:09:39;100661.25;;;22.85;61.56
25156;BME280;21913;52.456;13.634;2022-08-11T17:14:45;100669.25;;;22.83;61.78
25156;BME280;21913;52.456;13.634;2022-08-11T17:19:49;100661.38;;;22.82;61.89
25156;BME280;21913;52.456;13.634;2022-08-11T17:24:52;100666.78;;;22.79;61.85
25156;BME280;21913;52.456;13.634;2022-08-11T17:29:56;100662.41;;;22.78;61.75
25156;BME280;21913;52.456;13.634;2022-08-11T17:34:58;100659.84;;;22.76;61.91
25156;BME280;21913;52.456;13.634;2022-08-11T17:40:06;100659.06;;;22.74;62.16
25156;BME280;21913;52.456;13.634;2022-08-11T17:45:08;100654.75;;;22.72;61.90
25156;BME280;21913;52.456;13.634;2022-08-11T17:50:11;100658.31;;;22.71;62.10
25156;BME280;21913;52.456;13.634;2022-08-11T17:55:13;100653.97;;;22.70;62.17
25156;BME280;21913;52.456;13.634;2022-08-11T18:00:15;100669.00;;;22.68;62.19
25156;BME280;21913;52.456;13.634;2022-08-11T18:05:17;100667.25;;;22.67;62.33
25156;BME280;21913;52.456;13.634;2022-08-11T18:15:20;100666.47;;;22.65;62.46
25156;BME280;21913;52.456;13.634;2022-08-11T18:20:22;100668.31;;;22.63;62.41
25156;BME280;21913;52.456;13.634;2022-08-11T18:25:29;100672.75;;;22.62;62.69
25156;BME280;21913;52.456;13.634;2022-08-11T18:30:35;100676.28;;;22.61;62.56
25156;BME280;21913;52.456;13.634;2022-08-11T18:35:37;100681.63;;;22.60;62.49
25156;BME280;21913;52.456;13.634;2022-08-11T18:40:38;100675.56;;;22.57;62.59
25156;BME280;21913;52.456;13.634;2022-08-11T18:45:40;100681.75;;;22.56;62.52
25156;BME280;21913;52.456;13.634;2022-08-11T18:50:42;100679.13;;;22.56;62.78
25156;BME280;21913;52.456;13.634;2022-08-11T18:55:44;100678.31;;;22.54;62.83
25156;BME280;21913;52.456;13.634;2022-08-11T19:00:47;100687.13;;;22.53;62.90
25156;BME280;21913;52.456;13.634;2022-08-11T19:05:48;100695.06;;;22.53;62.83
25156;BME280;21913;52.456;13.634;2022-08-11T19:10:51;100700.41;;;22.52;62.80
25156;BME280;21913;52.456;13.634;2022-08-11T19:15:53;100704.81;;;22.51;63.02
25156;BME280;21913;52.456;13.634;2022-08-11T19:20:56;100708.34;;;22.50;63.11
25156;BME280;21913;52.456;13.634;2022-08-11T19:25:58;100711.03;;;22.49;63.06
25156;BME280;21913;52.456;13.634;2022-08-11T19:31:00;100706.69;;;22.48;63.00
25156;BME280;21913;52.456;13.634;2022-08-11T19:36:02;100711.97;;;22.48;63.04
25156;BME280;21913;52.456;13.634;2022-08-11T19:41:04;100714.59;;;22.48;63.21
25156;BME280;21913;52.456;13.634;2022-08-11T19:46:07;100723.44;;;22.47;63.18
25156;BME280;21913;52.456;13.634;2022-08-11T19:51:10;100719.94;;;22.46;63.22
25156;BME280;21913;52.456;13.634;2022-08-11T19:56:12;100724.41;;;22.44;63.23
25156;BME280;21913;52.456;13.634;2022-08-11T20:01:15;100726.13;;;22.45;63.24
25156;BME280;21913;52.456;13.634;2022-08-11T20:06:16;100731.44;;;22.44;63.06
25156;BME280;21913;52.456;13.634;2022-08-11T20:11:18;100728.88;;;22.42;63.21
25156;BME280;21913;52.456;13.634;2022-08-11T20:16:19;100732.44;;;22.41;63.41
25156;BME280;21913;52.456;13.634;2022-08-11T20:21:23;100730.66;;;22.42;63.34
25156;BME280;21913;52.456;13.634;2022-08-11T20:26:29;100730.72;;;22.40;63.19
25156;BME280;21913;52.456;13.634;2022-08-11T20:31:31;100739.50;;;22.41;63.63
25156;BME280;21913;52.456;13.634;2022-08-11T20:36:33;100735.13;;;22.40;63.45
25156;BME280;21913;52.456;13.634;2022-08-11T20:41:36;100735.19;;;22.38;63.38
25156;BME280;21913;52.456;13.634;2022-08-11T20:46:38;100736.03;;;22.39;63.52
25156;BME280;21913;52.456;13.634;2022-08-11T20:51:41;100741.31;;;22.39;63.72
25156;BME280;21913;52.456;13.634;2022-08-11T20:56:44;100735.19;;;22.38;63.67
25156;BME280;21913;52.456;13.634;2022-08-11T21:01:46;100732.63;;;22.37;63.79
25156;BME280;21913;52.456;13.634;2022-08-11T21:06:49;100737.03;;;22.36;63.45
25156;BME280;21913;52.456;13.634;2022-08-11T21:11:51;100733.53;;;22.36;63.53
25156;BME280;21913;52.456;13.634;2022-08-11T21:16:55;100723.03;;;22.34;63.86
25156;BME280;21913;52.456;13.634;2022-08-11T21:21:57;100736.22;;;22.34;63.67
25156;BME280;21913;52.456;13.634;2022-08-11T21:27:01;100726.59;;;22.33;63.84
25156;BME280;21913;52.456;13.634;2022-08-11T21:32:04;100731.84;;;22.33;63.85
25156;BME280;21913;52.456;13.634;2022-08-11T21:37:06;100730.16;;;22.32;63.94
25156;BME280;21913;52.456;13.634;2022-08-11T21:42:08;100727.50;;;22.32;64.04
25156;BME280;21913;52.456;13.634;2022-08-11T21:47:11;100737.19;;;22.31;63.79
25156;BME280;21913;52.456;13.634;2022-08-11T21:52:12;100735.41;;;22.32;64.02
25156;BME280;21913;52.456;13.634;2022-08-11T21:57:14;100738.97;;;22.31;63.91
25156;BME280;21913;52.456;13.634;2022-08-11T22:02:16;100729.34;;;22.30;63.76
25156;BME280;21913;52.456;13.634;2022-08-11T22:07:17;100723.25;;;22.28;63.81
25156;BME280;21913;52.456;13.634;2022-08-11T22:12:19;100732.88;;;22.29;63.94
25156;BME280;21913;52.456;13.634;2022-08-11T22:17:21;100726.75;;;22.28;64.12
25156;BME280;21913;52.456;13.634;2022-08-11T22:22:22;100734.72;;;22.27;64.08
25156;BME280;21913;52.456;13.634;2022-08-11T22:27:24;100732.09;;;22.27;64.23
25156;BME280;21913;52.456;13.634;2022-08-11T22:32:25;100721.53;;;22.27;64.10
25156;BME280;21913;52.456;13.634;2022-08-11T22:37:28;100730.38;;;22.26;64.24
25156;BME280;21913;52.456;13.634;2022-08-11T22:42:31;100733.00;;;22.26;63.90
25156;BME280;21913;52.456;13.634;2022-08-11T22:47:34;100736.50;;;22.26;64.11
25156;BME280;21913;52.456;13.634;2022-08-11T22:52:36;100724.25;;;22.25;64.20
25156;BME280;21913;52.456;13.634;2022-08-11T22:57:38;100732.16;;;22.25;64.10
25156;BME280;21913;52.456;13.634;2022-08-11T23:02:40;100737.50;;;22.24;64.25
25156;BME280;21913;52.456;13.634;2022-08-11T23:07:42;100728.66;;;22.25;64.39
25156;BME280;21913;52.456;13.634;2022-08-11T23:12:45;100737.50;;;22.24;64.40
25156;BME280;21913;52.456;13.634;2022-08-11T23:17:46;100740.13;;;22.24;64.55
25156;BME280;21913;52.456;13.634;2022-08-11T23:22:48;100741.03;;;22.23;64.17
25156;BME280;21913;52.456;13.634;2022-08-11T23:27:50;100742.81;;;22.22;64.49
25156;BME280;21913;52.456;13.634;2022-08-11T23:32:57;100741.03;;;22.23;64.41
25156;BME280;21913;52.456;13.634;2022-08-11T23:38:00;100735.75;;;22.23;64.81
25156;BME280;21913;52.456;13.634;2022-08-11T23:43:01;100730.47;;;22.23;64.86
25156;BME280;21913;52.456;13.634;2022-08-11T23:48:03;100728.78;;;22.22;64.88
25156;BME280;21913;52.456;13.634;2022-08-11T23:53:05;100726.13;;;22.22;65.20
25156;BME280;21913;52.456;13.634;2022-08-11T23:58:07;100725.28;;;22.21;65.08
